sensor_id;sensor_type;location;lat;lon;timestamp;P1;durP1;ratioP1;P2;durP2;ratioP2
55212;SDS011;41083;52.932;6.674;2024-03-02T00:01:41;3.53;;;1.38;;
55212;SDS011;41083;52.932;6.674;2024-03-02T00:04:07;4.13;;;1.20;;
55212;SDS011;41083;52.932;6.674;2024-03-02T00:06:33;1.75;;;0.98;;
55212;SDS011;41083;52.932;6.674;2024-03-02T00:08:59;2.30;;;1.10;;
55212;SDS011;41083;52.932;6.674;2024-03-02T00:11:25;2.17;;;1.10;;
55212;SDS011;41083;52.932;6.674;2024-03-02T00:13:53;2.55;;;1.40;;
55212;SDS011;41083;52.932;6.674;2024-03-02T00:16:19;3.08;;;1.30;;
55212;SDS011;41083;52.932;6.674;2024-03-02T00:18:45;2.47;;;1.05;;
55212;SDS011;41083;52.932;6.674;2024-03-02T00:21:11;2.75;;;1.20;;
55212;SDS011;41083;52.932;6.674;2024-03-02T00:23:39;2.05;;;1.00;;
55212;SDS011;41083;52.932;6.674;2024-03-02T00:26:05;2.50;;;1.20;;
55212;SDS011;41083;52.932;6.674;2024-03-02T00:28:32;3.30;;;1.50;;
55212;SDS011;41083;52.932;6.674;2024-03-02T00:33:35;3.08;;;1.30;;
55212;SDS011;41083;52.932;6.674;2024-03-02T00:36:02;2.78;;;1.20;;
55212;SDS011;41083;52.932;6.674;2024-03-02T00:38:30;2.67;;;1.05;;
55212;SDS011;41083;52.932;6.674;2024-03-02T00:40:57;3.33;;;0.93;;
55212;SDS011;41083;52.932;6.674;2024-03-02T00:43:35;2.08;;;1.00;;
55212;SDS011;41083;52.932;6.674;2024-03-02T00:46:04;2.55;;;1.10;;
55212;SDS011;41083;52.932;6.674;2024-03-02T00:48:29;1.77;;;1.13;;
55212;SDS011;41083;52.932;6.674;2024-03-02T00:50:56;2.28;;;1.15;;
55212;SDS011;41083;52.932;6.674;2024-03-02T00:53:23;2.78;;;1.58;;
55212;SDS011;41083;52.932;6.674;2024-03-02T00:55:50;2.40;;;1.10;;
55212;SDS011;41083;52.932;6.674;2024-03-02T00:58:16;2.70;;;1.45;;
55212;SDS011;41083;52.932;6.674;2024-03-02T01:00:41;2.75;;;1.00;;
55212;SDS011;41083;52.932;6.674;2024-03-02T01:03:07;2.78;;;1.30;;
55212;SDS011;41083;52.932;6.674;2024-03-02T01:05:33;2.20;;;1.02;;
55212;SDS011;41083;52.932;6.674;2024-03-02T01:07:59;2.60;;;1.30;;
55212;SDS011;41083;52.932;6.674;2024-03-02T01:10:24;2.08;;;0.98;;
55212;SDS011;41083;52.932;6.674;2024-03-02T01:12:51;2.22;;;1.10;;
55212;SDS011;41083;52.932;6.674;2024-03-02T01:15:16;3.33;;;1.40;;
55212;SDS011;41083;52.932;6.674;2024-03-02T01:17:42;4.32;;;1.70;;
55212;SDS011;41083;52.932;6.674;2024-03-02T01:20:08;2.20;;;1.23;;
55212;SDS011;41083;52.932;6.674;2024-03-02T01:22:34;2.58;;;1.10;;
55212;SDS011;41083;52.932;6.674;2024-03-02T01:25:01;3.20;;;1.20;;
55212;SDS011;41083;52.932;6.674;2024-03-02T01:27:27;3.95;;;1.20;;
55212;SDS011;41083;52.932;6.674;2024-03-02T01:29:53;4.43;;;1.40;;
55212;SDS011;41083;52.932;6.674;2024-03-02T01:32:19;3.17;;;1.70;;
55212;SDS011;41083;52.932;6.674;2024-03-02T01:34:45;3.53;;;1.60;;
55212;SDS011;41083;52.932;6.674;2024-03-02T01:37:11;2.25;;;1.15;;
55212;SDS011;41083;52.932;6.674;2024-03-02T01:39:37;2.55;;;1.40;;
55212;SDS011;41083;52.932;6.674;2024-03-02T01:42:02;2.70;;;1.25;;
55212;SDS011;41083;52.932;6.674;2024-03-02T01:44:28;3.53;;;1.40;;
55212;SDS011;41083;52.932;6.674;2024-03-02T01:46:54;3.42;;;1.65;;
55212;SDS011;41083;52.932;6.674;2024-03-02T01:49:19;2.72;;;1.20;;
55212;SDS011;41083;52.932;6.674;2024-03-02T01:51:45;2.75;;;1.25;;
55212;SDS011;41083;52.932;6.674;2024-03-02T01:54:11;2.40;;;1.27;;
55212;SDS011;41083;52.932;6.674;2024-03-02T01:56:37;6.25;;;1.88;;
55212;SDS011;41083;52.932;6.674;2024-03-02T01:59:02;4.95;;;1.40;;
55212;SDS011;41083;52.932;6.674;2024-03-02T02:01:28;2.65;;;1.45;;
55212;SDS011;41083;52.932;6.674;2024-03-02T02:03:54;3.17;;;1.58;;
55212;SDS011;41083;52.932;6.674;2024-03-02T02:06:20;3.78;;;1.50;;
55212;SDS011;41083;52.932;6.674;2024-03-02T02:08:46;3.38;;;1.45;;
55212;SDS011;41083;52.932;6.674;2024-03-02T02:11:15;2.67;;;1.27;;
55212;SDS011;41083;52.932;6.674;2024-03-02T02:13:41;3.55;;;1.40;;
55212;SDS011;41083;52.932;6.674;2024-03-02T02:16:07;4.47;;;1.63;;
55212;SDS011;41083;52.932;6.674;2024-03-02T02:18:34;3.65;;;1.45;;
55212;SDS011;41083;52.932;6.674;2024-03-02T02:21:00;2.58;;;1.35;;
55212;SDS011;41083;52.932;6.674;2024-03-02T02:23:27;2.10;;;1.10;;
55212;SDS011;41083;52.932;6.674;2024-03-02T02:25:52;2.10;;;0.93;;
55212;SDS011;41083;52.932;6.674;2024-03-02T02:28:18;2.92;;;1.08;;
55212;SDS011;41083;52.932;6.674;2024-03-02T02:30:43;2.53;;;1.23;;
55212;SDS011;41083;52.932;6.674;2024-03-02T02:33:09;3.60;;;1.45;;
55212;SDS011;41083;52.932;6.674;2024-03-02T02:35:35;2.80;;;1.17;;
55212;SDS011;41083;52.932;6.674;2024-03-02T02:38:00;5.28;;;1.40;;
55212;SDS011;41083;52.932;6.674;2024-03-02T02:40:27;2.90;;;1.27;;
55212;SDS011;41083;52.932;6.674;2024-03-02T02:42:55;2.30;;;1.30;;
55212;SDS011;41083;52.932;6.674;2024-03-02T02:45:21;2.78;;;1.25;;
55212;SDS011;41083;52.932;6.674;2024-03-02T02:47:47;2.22;;;0.98;;
55212;SDS011;41083;52.932;6.674;2024-03-02T02:50:13;2.42;;;1.17;;
55212;SDS011;41083;52.932;6.674;2024-03-02T02:52:39;2.13;;;0.90;;
55212;SDS011;41083;52.932;6.674;2024-03-02T02:55:09;2.45;;;1.27;;
55212;SDS011;41083;52.932;6.674;2024-03-02T02:57:36;2.67;;;0.88;;
55212;SDS011;41083;52.932;6.674;2024-03-02T03:02:40;1.88;;;0.95;;
55212;SDS011;41083;52.932;6.674;2024-03-02T03:05:07;2.20;;;0.90;;
55212;SDS011;41083;52.932;6.674;2024-03-02T03:07:37;3.08;;;1.23;;
55212;SDS011;41083;52.932;6.674;2024-03-02T03:10:04;2.05;;;1.00;;
55212;SDS011;41083;52.932;6.674;2024-03-02T03:12:31;2.05;;;1.02;;
55212;SDS011;41083;52.932;6.674;2024-03-02T03:14:57;3.80;;;1.30;;
55212;SDS011;41083;52.932;6.674;2024-03-02T03:17:24;1.88;;;1.17;;
55212;SDS011;41083;52.932;6.674;2024-03-02T03:19:50;2.20;;;1.00;;
55212;SDS011;41083;52.932;6.674;2024-03-02T03:22:16;2.00;;;0.95;;
55212;SDS011;41083;52.932;6.674;2024-03-02T03:24:41;3.38;;;1.17;;
55212;SDS011;41083;52.932;6.674;2024-03-02T03:27:07;2.80;;;1.35;;
55212;SDS011;41083;52.932;6.674;2024-03-02T03:29:33;3.10;;;0.98;;
55212;SDS011;41083;52.932;6.674;2024-03-02T03:31:58;2.67;;;1.15;;
55212;SDS011;41083;52.932;6.674;2024-03-02T03:34:24;2.47;;;1.17;;
55212;SDS011;41083;52.932;6.674;2024-03-02T03:36:49;4.45;;;1.25;;
55212;SDS011;41083;52.932;6.674;2024-03-02T03:39:15;2.25;;;0.90;;
55212;SDS011;41083;52.932;6.674;2024-03-02T03:41:40;1.73;;;1.00;;
55212;SDS011;41083;52.932;6.674;2024-03-02T03:44:06;3.65;;;1.10;;
55212;SDS011;41083;52.932;6.674;2024-03-02T03:46:32;4.75;;;1.15;;
55212;SDS011;41083;52.932;6.674;2024-03-02T03:48:57;3.42;;;1.15;;
55212;SDS011;41083;52.932;6.674;2024-03-02T03:51:23;2.53;;;1.10;;
55212;SDS011;41083;52.932;6.674;2024-03-02T03:53:48;6.07;;;1.45;;
55212;SDS011;41083;52.932;6.674;2024-03-02T03:56:14;4.15;;;1.50;;
55212;SDS011;41083;52.932;6.674;2024-03-02T03:58:40;3.58;;;0.90;;
55212;SDS011;41083;52.932;6.674;2024-03-02T04:01:05;2.97;;;1.38;;
55212;SDS011;41083;52.932;6.674;2024-03-02T04:03:31;1.95;;;1.10;;
55212;SDS011;41083;52.932;6.674;2024-03-02T04:05:56;3.05;;;1.38;;
55212;SDS011;41083;52.932;6.674;2024-03-02T04:08:22;1.95;;;1.05;;
55212;SDS011;41083;52.932;6.674;2024-03-02T04:10:48;1.90;;;1.00;;
55212;SDS011;41083;52.932;6.674;2024-03-02T04:13:14;2.60;;;1.25;;
55212;SDS011;41083;52.932;6.674;2024-03-02T04:15:39;2.00;;;1.13;;
55212;SDS011;41083;52.932;6.674;2024-03-02T04:18:05;2.28;;;1.02;;
55212;SDS011;41083;52.932;6.674;2024-03-02T04:20:31;2.90;;;0.93;;
55212;SDS011;41083;52.932;6.674;2024-03-02T04:22:57;2.42;;;1.00;;
55212;SDS011;41083;52.932;6.674;2024-03-02T04:25:23;2.05;;;1.00;;
55212;SDS011;41083;52.932;6.674;2024-03-02T04:27:48;2.35;;;1.15;;
55212;SDS011;41083;52.932;6.674;2024-03-02T04:30:14;2.55;;;1.10;;
55212;SDS011;41083;52.932;6.674;2024-03-02T04:32:40;2.00;;;0.90;;
55212;SDS011;41083;52.932;6.674;2024-03-02T04:35:05;3.85;;;0.93;;
55212;SDS011;41083;52.932;6.674;2024-03-02T04:37:34;3.20;;;1.02;;
55212;SDS011;41083;52.932;6.674;2024-03-02T04:40:00;2.95;;;1.10;;
55212;SDS011;41083;52.932;6.674;2024-03-02T04:42:25;1.73;;;1.00;;
55212;SDS011;41083;52.932;6.674;2024-03-02T04:44:51;3.10;;;1.00;;
55212;SDS011;41083;52.932;6.674;2024-03-02T04:47:17;2.28;;;1.10;;
55212;SDS011;41083;52.932;6.674;2024-03-02T04:49:42;3.15;;;1.27;;
55212;SDS011;41083;52.932;6.674;2024-03-02T04:52:08;3.00;;;1.02;;
55212;SDS011;41083;52.932;6.674;2024-03-02T04:54:34;4.05;;;1.23;;
55212;SDS011;41083;52.932;6.674;2024-03-02T04:57:20;3.05;;;1.10;;
55212;SDS011;41083;52.932;6.674;2024-03-02T04:59:45;1.90;;;0.93;;
55212;SDS011;41083;52.932;6.674;2024-03-02T05:02:11;3.33;;;1.42;;
55212;SDS011;41083;52.932;6.674;2024-03-02T05:04:39;2.65;;;1.38;;
55212;SDS011;41083;52.932;6.674;2024-03-02T05:07:05;2.35;;;0.90;;
55212;SDS011;41083;52.932;6.674;2024-03-02T05:09:30;2.58;;;1.30;;
55212;SDS011;41083;52.932;6.674;2024-03-02T05:11:56;1.85;;;0.82;;
55212;SDS011;41083;52.932;6.674;2024-03-02T05:15:00;4.43;;;1.10;;
55212;SDS011;41083;52.932;6.674;2024-03-02T05:17:26;2.10;;;1.10;;
55212;SDS011;41083;52.932;6.674;2024-03-02T05:19:52;3.22;;;1.15;;
55212;SDS011;41083;52.932;6.674;2024-03-02T05:22:18;2.97;;;1.10;;
55212;SDS011;41083;52.932;6.674;2024-03-02T05:24:43;1.95;;;1.00;;
55212;SDS011;41083;52.932;6.674;2024-03-02T05:27:09;2.20;;;0.80;;
55212;SDS011;41083;52.932;6.674;2024-03-02T05:29:34;2.63;;;1.02;;
55212;SDS011;41083;52.932;6.674;2024-03-02T05:32:00;2.47;;;1.05;;
55212;SDS011;41083;52.932;6.674;2024-03-02T05:34:26;4.50;;;1.30;;
55212;SDS011;41083;52.932;6.674;2024-03-02T05:36:51;2.47;;;1.05;;
55212;SDS011;41083;52.932;6.674;2024-03-02T05:39:17;2.05;;;0.95;;
55212;SDS011;41083;52.932;6.674;2024-03-02T05:41:43;1.80;;;0.77;;
55212;SDS011;41083;52.932;6.674;2024-03-02T05:44:08;2.40;;;1.02;;
55212;SDS011;41083;52.932;6.674;2024-03-02T05:46:34;2.75;;;1.10;;
55212;SDS011;41083;52.932;6.674;2024-03-02T05:49:00;2.13;;;1.00;;
55212;SDS011;41083;52.932;6.674;2024-03-02T05:51:26;3.22;;;0.98;;
55212;SDS011;41083;52.932;6.674;2024-03-02T05:53:51;2.40;;;1.05;;
55212;SDS011;41083;52.932;6.674;2024-03-02T05:56:17;3.20;;;1.10;;
55212;SDS011;41083;52.932;6.674;2024-03-02T05:58:43;3.60;;;0.88;;
55212;SDS011;41083;52.932;6.674;2024-03-02T06:01:08;2.67;;;1.13;;
55212;SDS011;41083;52.932;6.674;2024-03-02T06:03:34;3.03;;;1.20;;
55212;SDS011;41083;52.932;6.674;2024-03-02T06:05:59;2.10;;;1.20;;
55212;SDS011;41083;52.932;6.674;2024-03-02T06:08:25;2.25;;;0.95;;
55212;SDS011;41083;52.932;6.674;2024-03-02T06:10:51;5.75;;;1.17;;
55212;SDS011;41083;52.932;6.674;2024-03-02T06:13:16;2.10;;;0.85;;
55212;SDS011;41083;52.932;6.674;2024-03-02T06:15:42;3.15;;;1.40;;
55212;SDS011;41083;52.932;6.674;2024-03-02T06:18:08;3.08;;;1.10;;
55212;SDS011;41083;52.932;6.674;2024-03-02T06:20:34;2.22;;;1.17;;
55212;SDS011;41083;52.932;6.674;2024-03-02T06:23:00;2.20;;;1.08;;
55212;SDS011;41083;52.932;6.674;2024-03-02T06:25:26;3.67;;;1.63;;
55212;SDS011;41083;52.932;6.674;2024-03-02T06:27:51;2.50;;;1.25;;
55212;SDS011;41083;52.932;6.674;2024-03-02T06:30:17;3.78;;;1.20;;
55212;SDS011;41083;52.932;6.674;2024-03-02T06:32:43;1.90;;;1.23;;
55212;SDS011;41083;52.932;6.674;2024-03-02T06:35:09;2.45;;;1.23;;
55212;SDS011;41083;52.932;6.674;2024-03-02T06:37:35;2.38;;;1.08;;
55212;SDS011;41083;52.932;6.674;2024-03-02T06:40:01;2.72;;;1.23;;
55212;SDS011;41083;52.932;6.674;2024-03-02T06:42:27;4.43;;;1.40;;
55212;SDS011;41083;52.932;6.674;2024-03-02T06:44:58;1.42;;;0.85;;
55212;SDS011;41083;52.932;6.674;2024-03-02T06:47:24;2.35;;;1.30;;
55212;SDS011;41083;52.932;6.674;2024-03-02T06:49:49;2.08;;;1.17;;
55212;SDS011;41083;52.932;6.674;2024-03-02T06:52:15;2.45;;;1.33;;
55212;SDS011;41083;52.932;6.674;2024-03-02T06:54:41;2.08;;;1.42;;
55212;SDS011;41083;52.932;6.674;2024-03-02T06:57:07;2.65;;;1.02;;
55212;SDS011;41083;52.932;6.674;2024-03-02T06:59:32;4.10;;;1.38;;
55212;SDS011;41083;52.932;6.674;2024-03-02T07:01:58;3.40;;;1.30;;
55212;SDS011;41083;52.932;6.674;2024-03-02T07:04:24;1.95;;;1.20;;
55212;SDS011;41083;52.932;6.674;2024-03-02T07:06:50;3.20;;;1.20;;
55212;SDS011;41083;52.932;6.674;2024-03-02T07:09:16;2.05;;;1.15;;
55212;SDS011;41083;52.932;6.674;2024-03-02T07:11:42;1.80;;;0.95;;
55212;SDS011;41083;52.932;6.674;2024-03-02T07:14:08;5.78;;;1.20;;
55212;SDS011;41083;52.932;6.674;2024-03-02T07:16:33;2.42;;;1.20;;
55212;SDS011;41083;52.932;6.674;2024-03-02T07:19:03;3.15;;;1.23;;
55212;SDS011;41083;52.932;6.674;2024-03-02T07:21:28;2.88;;;1.20;;
55212;SDS011;41083;52.932;6.674;2024-03-02T07:23:54;2.63;;;1.20;;
55212;SDS011;41083;52.932;6.674;2024-03-02T07:26:20;2.47;;;1.20;;
55212;SDS011;41083;52.932;6.674;2024-03-02T07:28:46;1.80;;;0.93;;
55212;SDS011;41083;52.932;6.674;2024-03-02T07:31:13;3.20;;;1.30;;
55212;SDS011;41083;52.932;6.674;2024-03-02T07:33:39;3.25;;;1.40;;
55212;SDS011;41083;52.932;6.674;2024-03-02T07:36:04;3.83;;;1.60;;
55212;SDS011;41083;52.932;6.674;2024-03-02T07:38:30;3.80;;;1.73;;
55212;SDS011;41083;52.932;6.674;2024-03-02T07:40:59;3.75;;;1.20;;
55212;SDS011;41083;52.932;6.674;2024-03-02T07:43:25;3.45;;;1.38;;
55212;SDS011;41083;52.932;6.674;2024-03-02T07:45:51;3.35;;;1.00;;
55212;SDS011;41083;52.932;6.674;2024-03-02T07:48:17;2.85;;;1.00;;
55212;SDS011;41083;52.932;6.674;2024-03-02T07:50:42;3.28;;;1.25;;
55212;SDS011;41083;52.932;6.674;2024-03-02T07:53:08;2.80;;;0.95;;
55212;SDS011;41083;52.932;6.674;2024-03-02T07:55:34;2.42;;;1.30;;
55212;SDS011;41083;52.932;6.674;2024-03-02T07:58:00;2.53;;;1.25;;
55212;SDS011;41083;52.932;6.674;2024-03-02T08:00:26;2.70;;;0.93;;
55212;SDS011;41083;52.932;6.674;2024-03-02T08:02:52;1.20;;;0.90;;
55212;SDS011;41083;52.932;6.674;2024-03-02T08:05:18;2.92;;;1.10;;
55212;SDS011;41083;52.932;6.674;2024-03-02T08:07:45;1.83;;;0.88;;
55212;SDS011;41083;52.932;6.674;2024-03-02T08:10:11;2.13;;;1.00;;
55212;SDS011;41083;52.932;6.674;2024-03-02T08:12:37;2.22;;;1.02;;
55212;SDS011;41083;52.932;6.674;2024-03-02T08:15:03;3.58;;;0.88;;
55212;SDS011;41083;52.932;6.674;2024-03-02T08:17:30;2.83;;;1.10;;
55212;SDS011;41083;52.932;6.674;2024-03-02T08:19:55;2.60;;;1.10;;
55212;SDS011;41083;52.932;6.674;2024-03-02T08:22:22;2.22;;;1.00;;
55212;SDS011;41083;52.932;6.674;2024-03-02T08:24:48;1.88;;;0.90;;
55212;SDS011;41083;52.932;6.674;2024-03-02T08:27:13;2.92;;;1.00;;
55212;SDS011;41083;52.932;6.674;2024-03-02T08:29:40;4.35;;;1.45;;
55212;SDS011;41083;52.932;6.674;2024-03-02T08:32:06;6.13;;;2.45;;
55212;SDS011;41083;52.932;6.674;2024-03-02T08:34:32;5.10;;;2.13;;
55212;SDS011;41083;52.932;6.674;2024-03-02T08:37:00;3.10;;;1.50;;
55212;SDS011;41083;52.932;6.674;2024-03-02T08:39:27;1.67;;;0.93;;
55212;SDS011;41083;52.932;6.674;2024-03-02T08:41:53;1.83;;;0.90;;
55212;SDS011;41083;52.932;6.674;2024-03-02T08:44:19;2.38;;;1.00;;
55212;SDS011;41083;52.932;6.674;2024-03-02T08:46:45;2.13;;;0.80;;
55212;SDS011;41083;52.932;6.674;2024-03-02T08:49:10;1.70;;;0.65;;
55212;SDS011;41083;52.932;6.674;2024-03-02T08:51:36;1.92;;;0.82;;
55212;SDS011;41083;52.932;6.674;2024-03-02T08:54:01;1.98;;;0.82;;
55212;SDS011;41083;52.932;6.674;2024-03-02T08:56:29;1.55;;;0.80;;
55212;SDS011;41083;52.932;6.674;2024-03-02T08:58:55;1.48;;;0.52;;
55212;SDS011;41083;52.932;6.674;2024-03-02T09:01:21;1.83;;;0.65;;
55212;SDS011;41083;52.932;6.674;2024-03-02T09:03:46;1.42;;;0.70;;
55212;SDS011;41083;52.932;6.674;2024-03-02T09:06:14;0.93;;;0.35;;
55212;SDS011;41083;52.932;6.674;2024-03-02T09:08:42;1.67;;;0.80;;
55212;SDS011;41083;52.932;6.674;2024-03-02T09:11:08;1.60;;;0.75;;
55212;SDS011;41083;52.932;6.674;2024-03-02T09:13:35;2.90;;;0.68;;
55212;SDS011;41083;52.932;6.674;2024-03-02T09:16:02;1.00;;;0.70;;
55212;SDS011;41083;52.932;6.674;2024-03-02T09:18:29;1.50;;;0.60;;
55212;SDS011;41083;52.932;6.674;2024-03-02T09:20:54;1.67;;;0.63;;
55212;SDS011;41083;52.932;6.674;2024-03-02T09:23:20;1.30;;;0.70;;
55212;SDS011;41083;52.932;6.674;2024-03-02T09:25:46;0.80;;;0.70;;
55212;SDS011;41083;52.932;6.674;2024-03-02T09:28:12;1.55;;;0.52;;
55212;SDS011;41083;52.932;6.674;2024-03-02T09:30:37;0.82;;;0.40;;
55212;SDS011;41083;52.932;6.674;2024-03-02T09:33:03;0.82;;;0.45;;
55212;SDS011;41083;52.932;6.674;2024-03-02T09:35:29;1.95;;;0.60;;
55212;SDS011;41083;52.932;6.674;2024-03-02T09:37:55;0.77;;;0.30;;
55212;SDS011;41083;52.932;6.674;2024-03-02T09:40:24;1.40;;;0.50;;
55212;SDS011;41083;52.932;6.674;2024-03-02T09:42:50;0.90;;;0.50;;
55212;SDS011;41083;52.932;6.674;2024-03-02T09:45:23;1.30;;;0.45;;
55212;SDS011;41083;52.932;6.674;2024-03-02T09:47:49;1.33;;;0.65;;
55212;SDS011;41083;52.932;6.674;2024-03-02T09:50:15;1.90;;;0.60;;
55212;SDS011;41083;52.932;6.674;2024-03-02T09:52:48;1.67;;;0.80;;
55212;SDS011;41083;52.932;6.674;2024-03-02T09:55:15;1.45;;;0.63;;
55212;SDS011;41083;52.932;6.674;2024-03-02T09:57:42;2.22;;;0.60;;
55212;SDS011;41083;52.932;6.674;2024-03-02T10:00:08;1.13;;;0.50;;
55212;SDS011;41083;52.932;6.674;2024-03-02T10:02:34;2.55;;;0.60;;
55212;SDS011;41083;52.932;6.674;2024-03-02T10:04:59;1.42;;;0.70;;
55212;SDS011;41083;52.932;6.674;2024-03-02T10:07:25;1.33;;;0.70;;
55212;SDS011;41083;52.932;6.674;2024-03-02T10:09:51;2.42;;;0.60;;
55212;SDS011;41083;52.932;6.674;2024-03-02T10:12:17;1.73;;;0.80;;
55212;SDS011;41083;52.932;6.674;2024-03-02T10:14:43;0.98;;;0.60;;
55212;SDS011;41083;52.932;6.674;2024-03-02T10:17:11;2.13;;;0.75;;
55212;SDS011;41083;52.932;6.674;2024-03-02T10:19:37;1.75;;;1.00;;
55212;SDS011;41083;52.932;6.674;2024-03-02T10:22:05;2.30;;;0.77;;
55212;SDS011;41083;52.932;6.674;2024-03-02T10:27:08;2.25;;;0.75;;
55212;SDS011;41083;52.932;6.674;2024-03-02T10:29:38;1.20;;;0.73;;
55212;SDS011;41083;52.932;6.674;2024-03-02T10:32:05;2.50;;;0.80;;
55212;SDS011;41083;52.932;6.674;2024-03-02T10:34:33;2.03;;;0.80;;
55212;SDS011;41083;52.932;6.674;2024-03-02T10:37:00;0.70;;;0.50;;
55212;SDS011;41083;52.932;6.674;2024-03-02T10:39:26;1.40;;;0.70;;
55212;SDS011;41083;52.932;6.674;2024-03-02T10:41:53;2.88;;;0.73;;
55212;SDS011;41083;52.932;6.674;2024-03-02T10:44:20;1.30;;;0.60;;
55212;SDS011;41083;52.932;6.674;2024-03-02T10:46:47;1.23;;;0.80;;
55212;SDS011;41083;52.932;6.674;2024-03-02T10:49:15;1.65;;;0.73;;
55212;SDS011;41083;52.932;6.674;2024-03-02T10:51:42;1.77;;;0.68;;
55212;SDS011;41083;52.932;6.674;2024-03-02T10:54:08;2.15;;;0.90;;
55212;SDS011;41083;52.932;6.674;2024-03-02T10:56:36;3.58;;;0.82;;
55212;SDS011;41083;52.932;6.674;2024-03-02T11:01:38;2.25;;;1.23;;
55212;SDS011;41083;52.932;6.674;2024-03-02T11:04:04;1.45;;;0.65;;
55212;SDS011;41083;52.932;6.674;2024-03-02T11:06:33;1.50;;;0.60;;
55212;SDS011;41083;52.932;6.674;2024-03-02T11:09:06;1.52;;;0.80;;
55212;SDS011;41083;52.932;6.674;2024-03-02T11:11:36;1.27;;;0.70;;
55212;SDS011;41083;52.932;6.674;2024-03-02T11:14:06;3.38;;;1.05;;
55212;SDS011;41083;52.932;6.674;2024-03-02T11:16:35;2.65;;;0.85;;
55212;SDS011;41083;52.932;6.674;2024-03-02T11:19:03;3.50;;;0.88;;
55212;SDS011;41083;52.932;6.674;2024-03-02T11:21:37;1.35;;;0.70;;
55212;SDS011;41083;52.932;6.674;2024-03-02T11:24:28;1.95;;;1.15;;
55212;SDS011;41083;52.932;6.674;2024-03-02T11:26:57;2.35;;;1.00;;
55212;SDS011;41083;52.932;6.674;2024-03-02T11:32:12;2.65;;;0.90;;
55212;SDS011;41083;52.932;6.674;2024-03-02T11:34:39;2.65;;;1.35;;
55212;SDS011;41083;52.932;6.674;2024-03-02T11:37:10;1.50;;;0.80;;
55212;SDS011;41083;52.932;6.674;2024-03-02T11:39:36;2.28;;;1.05;;
55212;SDS011;41083;52.932;6.674;2024-03-02T11:42:04;1.77;;;0.80;;
55212;SDS011;41083;52.932;6.674;2024-03-02T11:44:35;1.02;;;0.50;;
55212;SDS011;41083;52.932;6.674;2024-03-02T11:47:03;2.65;;;0.60;;
55212;SDS011;41083;52.932;6.674;2024-03-02T11:50:05;2.38;;;0.60;;
55212;SDS011;41083;52.932;6.674;2024-03-02T11:52:24;1.00;;;0.70;;
55212;SDS011;41083;52.932;6.674;2024-03-02T11:54:52;1.20;;;0.80;;
55212;SDS011;41083;52.932;6.674;2024-03-02T11:57:19;1.48;;;0.98;;
55212;SDS011;41083;52.932;6.674;2024-03-02T11:59:47;4.43;;;0.80;;
55212;SDS011;41083;52.932;6.674;2024-03-02T12:02:15;2.60;;;1.05;;
55212;SDS011;41083;52.932;6.674;2024-03-02T12:04:42;1.90;;;1.10;;
55212;SDS011;41083;52.932;6.674;2024-03-02T12:07:10;2.05;;;0.98;;
55212;SDS011;41083;52.932;6.674;2024-03-02T12:09:36;1.83;;;0.95;;
55212;SDS011;41083;52.932;6.674;2024-03-02T12:12:03;2.78;;;1.10;;
55212;SDS011;41083;52.932;6.674;2024-03-02T12:14:36;2.00;;;1.10;;
55212;SDS011;41083;52.932;6.674;2024-03-02T12:17:02;2.42;;;1.45;;
55212;SDS011;41083;52.932;6.674;2024-03-02T12:19:29;1.48;;;1.00;;
55212;SDS011;41083;52.932;6.674;2024-03-02T12:21:56;2.15;;;1.13;;
55212;SDS011;41083;52.932;6.674;2024-03-02T12:24:22;2.60;;;1.25;;
55212;SDS011;41083;52.932;6.674;2024-03-02T12:26:51;3.10;;;1.80;;
55212;SDS011;41083;52.932;6.674;2024-03-02T12:29:18;2.17;;;1.38;;
55212;SDS011;41083;52.932;6.674;2024-03-02T12:31:47;1.95;;;1.13;;
55212;SDS011;41083;52.932;6.674;2024-03-02T12:34:14;3.33;;;1.55;;
55212;SDS011;41083;52.932;6.674;2024-03-02T12:36:41;2.47;;;1.55;;
55212;SDS011;41083;52.932;6.674;2024-03-02T12:39:07;2.15;;;1.48;;
55212;SDS011;41083;52.932;6.674;2024-03-02T12:41:38;3.03;;;1.92;;
55212;SDS011;41083;52.932;6.674;2024-03-02T12:44:04;2.63;;;1.63;;
55212;SDS011;41083;52.932;6.674;2024-03-02T12:46:30;2.83;;;1.90;;
55212;SDS011;41083;52.932;6.674;2024-03-02T12:48:57;2.75;;;2.08;;
55212;SDS011;41083;52.932;6.674;2024-03-02T12:51:24;3.28;;;1.80;;
55212;SDS011;41083;52.932;6.674;2024-03-02T12:53:54;3.75;;;1.70;;
55212;SDS011;41083;52.932;6.674;2024-03-02T12:56:20;2.97;;;1.70;;
55212;SDS011;41083;52.932;6.674;2024-03-02T12:58:46;2.92;;;1.83;;
55212;SDS011;41083;52.932;6.674;2024-03-02T13:01:14;3.13;;;2.15;;
55212;SDS011;41083;52.932;6.674;2024-03-02T13:03:42;4.50;;;2.08;;
55212;SDS011;41083;52.932;6.674;2024-03-02T13:06:08;3.28;;;1.98;;
55212;SDS011;41083;52.932;6.674;2024-03-02T13:08:34;3.17;;;1.90;;
55212;SDS011;41083;52.932;6.674;2024-03-02T13:11:00;4.32;;;2.08;;
55212;SDS011;41083;52.932;6.674;2024-03-02T13:13:26;3.97;;;2.08;;
55212;SDS011;41083;52.932;6.674;2024-03-02T13:15:55;4.40;;;2.58;;
55212;SDS011;41083;52.932;6.674;2024-03-02T13:18:21;2.75;;;1.80;;
55212;SDS011;41083;52.932;6.674;2024-03-02T13:20:47;3.47;;;2.10;;
55212;SDS011;41083;52.932;6.674;2024-03-02T13:23:13;3.13;;;2.28;;
55212;SDS011;41083;52.932;6.674;2024-03-02T13:25:39;4.18;;;2.03;;
55212;SDS011;41083;52.932;6.674;2024-03-02T13:28:05;3.40;;;2.13;;
55212;SDS011;41083;52.932;6.674;2024-03-02T13:30:31;3.60;;;2.30;;
55212;SDS011;41083;52.932;6.674;2024-03-02T13:32:57;8.07;;;3.83;;
55212;SDS011;41083;52.932;6.674;2024-03-02T13:35:23;4.35;;;2.60;;
55212;SDS011;41083;52.932;6.674;2024-03-02T13:37:49;3.65;;;2.15;;
55212;SDS011;41083;52.932;6.674;2024-03-02T13:40:15;3.13;;;2.10;;
55212;SDS011;41083;52.932;6.674;2024-03-02T13:42:45;3.50;;;2.00;;
55212;SDS011;41083;52.932;6.674;2024-03-02T13:45:12;4.10;;;2.10;;
55212;SDS011;41083;52.932;6.674;2024-03-02T13:47:38;2.80;;;1.83;;
55212;SDS011;41083;52.932;6.674;2024-03-02T13:50:04;2.80;;;1.60;;
55212;SDS011;41083;52.932;6.674;2024-03-02T13:52:31;3.95;;;2.05;;
55212;SDS011;41083;52.932;6.674;2024-03-02T13:54:56;2.35;;;1.60;;
55212;SDS011;41083;52.932;6.674;2024-03-02T13:57:22;2.10;;;1.20;;
55212;SDS011;41083;52.932;6.674;2024-03-02T13:59:48;2.15;;;1.30;;
55212;SDS011;41083;52.932;6.674;2024-03-02T14:02:14;2.28;;;1.10;;
55212;SDS011;41083;52.932;6.674;2024-03-02T14:04:40;1.42;;;0.80;;
55212;SDS011;41083;52.932;6.674;2024-03-02T14:07:05;3.83;;;1.20;;
55212;SDS011;41083;52.932;6.674;2024-03-02T14:09:35;1.48;;;0.90;;
55212;SDS011;41083;52.932;6.674;2024-03-02T14:12:01;3.13;;;0.88;;
55212;SDS011;41083;52.932;6.674;2024-03-02T14:14:27;0.90;;;0.60;;
55212;SDS011;41083;52.932;6.674;2024-03-02T14:16:56;4.47;;;1.70;;
55212;SDS011;41083;52.932;6.674;2024-03-02T14:19:25;10.93;;;3.70;;
55212;SDS011;41083;52.932;6.674;2024-03-02T14:21:51;4.82;;;2.28;;
55212;SDS011;41083;52.932;6.674;2024-03-02T14:24:17;3.65;;;1.40;;
55212;SDS011;41083;52.932;6.674;2024-03-02T14:26:42;2.28;;;0.80;;
55212;SDS011;41083;52.932;6.674;2024-03-02T14:29:08;3.42;;;1.65;;
55212;SDS011;41083;52.932;6.674;2024-03-02T14:31:34;3.97;;;1.50;;
55212;SDS011;41083;52.932;6.674;2024-03-02T14:33:59;2.53;;;1.00;;
55212;SDS011;41083;52.932;6.674;2024-03-02T14:36:25;2.25;;;1.08;;
55212;SDS011;41083;52.932;6.674;2024-03-02T14:38:52;1.77;;;1.10;;
55212;SDS011;41083;52.932;6.674;2024-03-02T14:41:18;2.55;;;1.30;;
55212;SDS011;41083;52.932;6.674;2024-03-02T14:43:44;2.00;;;1.02;;
55212;SDS011;41083;52.932;6.674;2024-03-02T14:46:09;1.58;;;1.02;;
55212;SDS011;41083;52.932;6.674;2024-03-02T14:48:36;2.72;;;1.05;;
55212;SDS011;41083;52.932;6.674;2024-03-02T14:51:03;1.90;;;1.00;;
55212;SDS011;41083;52.932;6.674;2024-03-02T14:53:29;4.32;;;1.48;;
55212;SDS011;41083;52.932;6.674;2024-03-02T14:55:55;9.77;;;2.65;;
55212;SDS011;41083;52.932;6.674;2024-03-02T14:58:20;29.67;;;10.50;;